sensor_id;sensor_type;location;lat;lon;timestamp;P1;durP1;ratioP1;P2;durP2;ratioP2
8312;SDS011;4194;43.408;24.626;2023-12-07T11:18:43;16.97;;;10.03;;
8312;SDS011;4194;43.408;24.626;2023-12-07T11:21:09;15.70;;;10.47;;
8312;SDS011;4194;43.408;24.626;2023-12-07T11:23:36;18.87;;;12.00;;
8312;SDS011;4194;43.408;24.626;2023-12-07T11:26:01;25.37;;;15.40;;
8312;SDS011;4194;43.408;24.626;2023-12-07T11:28:37;21.40;;;13.77;;
8312;SDS011;4194;43.408;24.626;2023-12-07T11:31:07;19.63;;;11.70;;
8312;SDS011;4194;43.408;24.626;2023-12-07T11:33:33;18.93;;;12.17;;
8312;SDS011;4194;43.408;24.626;2023-12-07T11:38:27;18.47;;;11.23;;
8312;SDS011;4194;43.408;24.626;2023-12-07T11:40:53;19.80;;;11.83;;
8312;SDS011;4194;43.408;24.626;2023-12-07T11:45:58;19.07;;;11.57;;
8312;SDS011;4194;43.408;24.626;2023-12-07T11:48:24;17.63;;;9.93;;
8312;SDS011;4194;43.408;24.626;2023-12-07T11:51:00;17.00;;;10.23;;
8312;SDS011;4194;43.408;24.626;2023-12-07T11:53:28;20.57;;;10.70;;
8312;SDS011;4194;43.408;24.626;2023-12-07T11:56:00;18.70;;;10.40;;
8312;SDS011;4194;43.408;24.626;2023-12-07T11:58:30;20.30;;;11.33;;
8312;SDS011;4194;43.408;24.626;2023-12-07T12:00:57;22.40;;;11.93;;
8312;SDS011;4194;43.408;24.626;2023-12-07T12:03:23;17.80;;;10.83;;
8312;SDS011;4194;43.408;24.626;2023-12-07T12:05:53;19.37;;;10.80;;
8312;SDS011;4194;43.408;24.626;2023-12-07T12:08:19;19.10;;;10.43;;
8312;SDS011;4194;43.408;24.626;2023-12-07T12:10:46;24.10;;;12.03;;
8312;SDS011;4194;43.408;24.626;2023-12-07T12:13:14;25.10;;;13.43;;
8312;SDS011;4194;43.408;24.626;2023-12-07T12:15:40;20.37;;;12.13;;
8312;SDS011;4194;43.408;24.626;2023-12-07T12:18:06;24.87;;;12.90;;
8312;SDS011;4194;43.408;24.626;2023-12-07T12:20:33;26.10;;;13.10;;
8312;SDS011;4194;43.408;24.626;2023-12-07T12:22:59;31.00;;;14.97;;
8312;SDS011;4194;43.408;24.626;2023-12-07T12:25:28;32.17;;;14.53;;
8312;SDS011;4194;43.408;24.626;2023-12-07T12:27:59;43.97;;;17.83;;
8312;SDS011;4194;43.408;24.626;2023-12-07T12:30:28;36.53;;;19.17;;
8312;SDS011;4194;43.408;24.626;2023-12-07T12:32:55;41.47;;;15.57;;
8312;SDS011;4194;43.408;24.626;2023-12-07T12:35:21;29.77;;;13.57;;
8312;SDS011;4194;43.408;24.626;2023-12-07T12:37:48;28.67;;;14.43;;
8312;SDS011;4194;43.408;24.626;2023-12-07T12:40:18;33.57;;;16.70;;
8312;SDS011;4194;43.408;24.626;2023-12-07T12:42:48;31.83;;;15.87;;
8312;SDS011;4194;43.408;24.626;2023-12-07T12:45:15;37.17;;;16.67;;
8312;SDS011;4194;43.408;24.626;2023-12-07T12:47:43;27.20;;;14.93;;
8312;SDS011;4194;43.408;24.626;2023-12-07T12:50:10;28.90;;;16.10;;
8312;SDS011;4194;43.408;24.626;2023-12-07T12:52:38;30.37;;;14.50;;
8312;SDS011;4194;43.408;24.626;2023-12-07T12:55:10;33.70;;;14.83;;
8312;SDS011;4194;43.408;24.626;2023-12-07T12:57:37;33.50;;;14.33;;
8312;SDS011;4194;43.408;24.626;2023-12-07T13:00:03;31.80;;;15.87;;
8312;SDS011;4194;43.408;24.626;2023-12-07T13:02:32;31.50;;;14.67;;
8312;SDS011;4194;43.408;24.626;2023-12-07T13:04:58;25.43;;;13.17;;
8312;SDS011;4194;43.408;24.626;2023-12-07T13:07:23;18.83;;;11.33;;
8312;SDS011;4194;43.408;24.626;2023-12-07T13:09:49;20.20;;;11.70;;
8312;SDS011;4194;43.408;24.626;2023-12-07T13:12:15;18.97;;;11.67;;
8312;SDS011;4194;43.408;24.626;2023-12-07T13:14:41;19.40;;;11.23;;
8312;SDS011;4194;43.408;24.626;2023-12-07T13:17:07;18.57;;;11.23;;
8312;SDS011;4194;43.408;24.626;2023-12-07T13:19:33;18.23;;;10.63;;
8312;SDS011;4194;43.408;24.626;2023-12-07T13:21:59;15.83;;;10.30;;
8312;SDS011;4194;43.408;24.626;2023-12-07T13:24:26;14.23;;;9.13;;
8312;SDS011;4194;43.408;24.626;2023-12-07T13:26:51;13.40;;;8.07;;
8312;SDS011;4194;43.408;24.626;2023-12-07T13:29:17;11.17;;;7.07;;
8312;SDS011;4194;43.408;24.626;2023-12-07T13:31:43;9.93;;;6.30;;
8312;SDS011;4194;43.408;24.626;2023-12-07T13:34:08;8.53;;;6.07;;
8312;SDS011;4194;43.408;24.626;2023-12-07T13:36:34;8.00;;;5.60;;
8312;SDS011;4194;43.408;24.626;2023-12-07T13:39:01;11.17;;;7.23;;
8312;SDS011;4194;43.408;24.626;2023-12-07T13:41:29;9.33;;;7.23;;
8312;SDS011;4194;43.408;24.626;2023-12-07T13:43:55;13.03;;;8.03;;
8312;SDS011;4194;43.408;24.626;2023-12-07T13:46:21;17.17;;;8.93;;
8312;SDS011;4194;43.408;24.626;2023-12-07T13:48:46;14.23;;;10.27;;
8312;SDS011;4194;43.408;24.626;2023-12-07T13:51:13;13.37;;;9.13;;
8312;SDS011;4194;43.408;24.626;2023-12-07T13:53:38;14.10;;;8.80;;
8312;SDS011;4194;43.408;24.626;2023-12-07T13:56:04;16.33;;;12.40;;
8312;SDS011;4194;43.408;24.626;2023-12-07T13:58:31;11.57;;;8.63;;
8312;SDS011;4194;43.408;24.626;2023-12-07T14:00:57;12.00;;;8.43;;
8312;SDS011;4194;43.408;24.626;2023-12-07T14:03:22;11.83;;;7.90;;
8312;SDS011;4194;43.408;24.626;2023-12-07T14:05:48;11.00;;;7.03;;
8312;SDS011;4194;43.408;24.626;2023-12-07T14:08:14;8.97;;;7.03;;
8312;SDS011;4194;43.408;24.626;2023-12-07T14:10:40;9.37;;;6.97;;
8312;SDS011;4194;43.408;24.626;2023-12-07T14:13:06;9.63;;;6.73;;
8312;SDS011;4194;43.408;24.626;2023-12-07T14:15:32;10.53;;;7.37;;
8312;SDS011;4194;43.408;24.626;2023-12-07T14:18:00;15.67;;;9.33;;
8312;SDS011;4194;43.408;24.626;2023-12-07T14:20:26;13.53;;;9.13;;
8312;SDS011;4194;43.408;24.626;2023-12-07T14:22:53;14.83;;;10.40;;
8312;SDS011;4194;43.408;24.626;2023-12-07T14:25:19;16.83;;;11.57;;
8312;SDS011;4194;43.408;24.626;2023-12-07T14:27:45;16.13;;;11.57;;
8312;SDS011;4194;43.408;24.626;2023-12-07T14:30:11;17.67;;;11.30;;
8312;SDS011;4194;43.408;24.626;2023-12-07T14:32:37;18.37;;;12.33;;
8312;SDS011;4194;43.408;24.626;2023-12-07T14:35:06;15.87;;;10.73;;
8312;SDS011;4194;43.408;24.626;2023-12-07T14:37:32;23.73;;;15.30;;
8312;SDS011;4194;43.408;24.626;2023-12-07T14:39:57;16.83;;;11.40;;
8312;SDS011;4194;43.408;24.626;2023-12-07T14:42:23;21.60;;;12.47;;
8312;SDS011;4194;43.408;24.626;2023-12-07T14:44:49;24.73;;;17.03;;
8312;SDS011;4194;43.408;24.626;2023-12-07T14:47:15;19.53;;;13.00;;
8312;SDS011;4194;43.408;24.626;2023-12-07T14:49:40;19.00;;;12.63;;
8312;SDS011;4194;43.408;24.626;2023-12-07T14:52:06;23.33;;;14.97;;
8312;SDS011;4194;43.408;24.626;2023-12-07T14:54:32;19.17;;;11.43;;
8312;SDS011;4194;43.408;24.626;2023-12-07T14:57:01;17.27;;;10.93;;
8312;SDS011;4194;43.408;24.626;2023-12-07T14:59:28;16.63;;;9.33;;
8312;SDS011;4194;43.408;24.626;2023-12-07T15:01:54;17.80;;;9.90;;
8312;SDS011;4194;43.408;24.626;2023-12-07T15:04:20;23.10;;;10.17;;
8312;SDS011;4194;43.408;24.626;2023-12-07T15:06:45;22.00;;;13.10;;
8312;SDS011;4194;43.408;24.626;2023-12-07T15:09:11;21.07;;;13.13;;
8312;SDS011;4194;43.408;24.626;2023-12-07T15:11:37;21.07;;;12.93;;
8312;SDS011;4194;43.408;24.626;2023-12-07T15:14:05;22.43;;;14.13;;
8312;SDS011;4194;43.408;24.626;2023-12-07T15:16:30;26.43;;;18.37;;
8312;SDS011;4194;43.408;24.626;2023-12-07T15:18:57;16.83;;;12.67;;
8312;SDS011;4194;43.408;24.626;2023-12-07T15:21:23;17.27;;;10.10;;
8312;SDS011;4194;43.408;24.626;2023-12-07T15:23:49;19.17;;;11.80;;
8312;SDS011;4194;43.408;24.626;2023-12-07T15:26:15;20.90;;;13.90;;
8312;SDS011;4194;43.408;24.626;2023-12-07T15:28:42;32.80;;;18.90;;
8312;SDS011;4194;43.408;24.626;2023-12-07T15:31:08;21.37;;;13.17;;
8312;SDS011;4194;43.408;24.626;2023-12-07T15:33:33;24.47;;;14.73;;
8312;SDS011;4194;43.408;24.626;2023-12-07T15:36:00;23.87;;;15.03;;
8312;SDS011;4194;43.408;24.626;2023-12-07T15:38:27;27.77;;;16.63;;
8312;SDS011;4194;43.408;24.626;2023-12-07T15:40:54;18.77;;;12.47;;
8312;SDS011;4194;43.408;24.626;2023-12-07T15:43:24;21.50;;;11.40;;
8312;SDS011;4194;43.408;24.626;2023-12-07T15:45:51;18.63;;;10.30;;
8312;SDS011;4194;43.408;24.626;2023-12-07T15:48:17;17.40;;;10.27;;
8312;SDS011;4194;43.408;24.626;2023-12-07T15:50:44;20.20;;;10.30;;
8312;SDS011;4194;43.408;24.626;2023-12-07T15:53:13;16.93;;;10.73;;
8312;SDS011;4194;43.408;24.626;2023-12-07T15:55:40;16.67;;;10.67;;
8312;SDS011;4194;43.408;24.626;2023-12-07T15:58:06;16.27;;;11.57;;
8312;SDS011;4194;43.408;24.626;2023-12-07T16:00:32;17.67;;;11.10;;
8312;SDS011;4194;43.408;24.626;2023-12-07T16:02:58;16.90;;;10.83;;
8312;SDS011;4194;43.408;24.626;2023-12-07T16:05:25;21.00;;;11.30;;
8312;SDS011;4194;43.408;24.626;2023-12-07T16:07:51;23.33;;;14.43;;
8312;SDS011;4194;43.408;24.626;2023-12-07T16:10:16;29.07;;;18.90;;
8312;SDS011;4194;43.408;24.626;2023-12-07T16:12:42;27.97;;;17.67;;
8312;SDS011;4194;43.408;24.626;2023-12-07T16:15:08;44.87;;;24.63;;
8312;SDS011;4194;43.408;24.626;2023-12-07T16:17:35;46.70;;;27.80;;
8312;SDS011;4194;43.408;24.626;2023-12-07T16:20:01;47.67;;;27.83;;
8312;SDS011;4194;43.408;24.626;2023-12-07T16:22:26;47.00;;;29.07;;
8312;SDS011;4194;43.408;24.626;2023-12-07T16:24:52;29.93;;;16.33;;
8312;SDS011;4194;43.408;24.626;2023-12-07T16:27:18;32.87;;;18.13;;
8312;SDS011;4194;43.408;24.626;2023-12-07T16:29:44;36.47;;;19.40;;
8312;SDS011;4194;43.408;24.626;2023-12-07T16:32:10;30.37;;;18.33;;
8312;SDS011;4194;43.408;24.626;2023-12-07T16:34:36;26.80;;;16.50;;
8312;SDS011;4194;43.408;24.626;2023-12-07T16:37:01;18.17;;;11.47;;
8312;SDS011;4194;43.408;24.626;2023-12-07T16:39:28;17.33;;;9.60;;
8312;SDS011;4194;43.408;24.626;2023-12-07T16:41:54;14.87;;;9.03;;
8312;SDS011;4194;43.408;24.626;2023-12-07T16:44:20;15.97;;;9.90;;
8312;SDS011;4194;43.408;24.626;2023-12-07T16:46:46;13.47;;;9.03;;
8312;SDS011;4194;43.408;24.626;2023-12-07T16:49:12;14.40;;;9.27;;
8312;SDS011;4194;43.408;24.626;2023-12-07T16:51:38;14.27;;;9.70;;
8312;SDS011;4194;43.408;24.626;2023-12-07T16:54:04;13.60;;;8.53;;
8312;SDS011;4194;43.408;24.626;2023-12-07T16:56:30;14.20;;;10.13;;
8312;SDS011;4194;43.408;24.626;2023-12-07T16:58:56;19.03;;;9.37;;
8312;SDS011;4194;43.408;24.626;2023-12-07T17:01:22;16.53;;;10.37;;
8312;SDS011;4194;43.408;24.626;2023-12-07T17:03:49;20.10;;;10.70;;
8312;SDS011;4194;43.408;24.626;2023-12-07T17:06:15;15.97;;;9.83;;
8312;SDS011;4194;43.408;24.626;2023-12-07T17:08:43;16.17;;;10.07;;
8312;SDS011;4194;43.408;24.626;2023-12-07T17:11:10;14.70;;;10.60;;
8312;SDS011;4194;43.408;24.626;2023-12-07T17:13:36;16.90;;;10.17;;
8312;SDS011;4194;43.408;24.626;2023-12-07T17:16:02;21.13;;;12.90;;
8312;SDS011;4194;43.408;24.626;2023-12-07T17:18:28;17.23;;;12.93;;
8312;SDS011;4194;43.408;24.626;2023-12-07T17:20:54;18.17;;;11.97;;
8312;SDS011;4194;43.408;24.626;2023-12-07T17:23:20;19.10;;;11.00;;
8312;SDS011;4194;43.408;24.626;2023-12-07T17:25:45;14.57;;;11.17;;
8312;SDS011;4194;43.408;24.626;2023-12-07T17:28:11;17.17;;;12.73;;
8312;SDS011;4194;43.408;24.626;2023-12-07T17:30:37;18.23;;;12.13;;
8312;SDS011;4194;43.408;24.626;2023-12-07T17:33:02;19.17;;;10.17;;
8312;SDS011;4194;43.408;24.626;2023-12-07T17:35:28;14.57;;;9.37;;
8312;SDS011;4194;43.408;24.626;2023-12-07T17:37:54;19.40;;;10.07;;
8312;SDS011;4194;43.408;24.626;2023-12-07T17:40:20;14.13;;;9.07;;
8312;SDS011;4194;43.408;24.626;2023-12-07T17:42:46;19.57;;;10.00;;
8312;SDS011;4194;43.408;24.626;2023-12-07T17:45:11;17.07;;;10.67;;
8312;SDS011;4194;43.408;24.626;2023-12-07T17:47:37;17.17;;;10.67;;
8312;SDS011;4194;43.408;24.626;2023-12-07T17:50:04;19.80;;;12.07;;
8312;SDS011;4194;43.408;24.626;2023-12-07T17:52:32;21.00;;;12.07;;
8312;SDS011;4194;43.408;24.626;2023-12-07T17:54:58;22.97;;;12.33;;
8312;SDS011;4194;43.408;24.626;2023-12-07T17:57:24;18.67;;;12.47;;
8312;SDS011;4194;43.408;24.626;2023-12-07T17:59:49;19.10;;;11.40;;
8312;SDS011;4194;43.408;24.626;2023-12-07T18:02:15;18.17;;;11.50;;
8312;SDS011;4194;43.408;24.626;2023-12-07T18:04:41;20.70;;;13.13;;
8312;SDS011;4194;43.408;24.626;2023-12-07T18:07:06;18.10;;;10.30;;
8312;SDS011;4194;43.408;24.626;2023-12-07T18:09:32;19.53;;;9.73;;
8312;SDS011;4194;43.408;24.626;2023-12-07T18:11:57;16.23;;;9.60;;
8312;SDS011;4194;43.408;24.626;2023-12-07T18:14:30;18.23;;;9.80;;
8312;SDS011;4194;43.408;24.626;2023-12-07T18:16:56;20.37;;;11.17;;
8312;SDS011;4194;43.408;24.626;2023-12-07T18:19:22;19.13;;;9.93;;
8312;SDS011;4194;43.408;24.626;2023-12-07T18:21:47;15.97;;;9.93;;
8312;SDS011;4194;43.408;24.626;2023-12-07T18:24:13;20.43;;;10.53;;
8312;SDS011;4194;43.408;24.626;2023-12-07T18:26:39;15.17;;;8.90;;
8312;SDS011;4194;43.408;24.626;2023-12-07T18:29:04;14.77;;;8.97;;
8312;SDS011;4194;43.408;24.626;2023-12-07T18:31:32;15.73;;;9.80;;
8312;SDS011;4194;43.408;24.626;2023-12-07T18:33:58;31.77;;;17.87;;
8312;SDS011;4194;43.408;24.626;2023-12-07T18:36:23;14.33;;;8.63;;
8312;SDS011;4194;43.408;24.626;2023-12-07T18:38:49;14.17;;;10.07;;
8312;SDS011;4194;43.408;24.626;2023-12-07T18:41:15;14.50;;;8.80;;
8312;SDS011;4194;43.408;24.626;2023-12-07T18:43:41;12.47;;;7.97;;
8312;SDS011;4194;43.408;24.626;2023-12-07T18:46:07;17.60;;;12.17;;
8312;SDS011;4194;43.408;24.626;2023-12-07T18:48:33;28.90;;;21.80;;
8312;SDS011;4194;43.408;24.626;2023-12-07T18:50:59;18.10;;;12.10;;
8312;SDS011;4194;43.408;24.626;2023-12-07T18:53:25;12.50;;;10.07;;
8312;SDS011;4194;43.408;24.626;2023-12-07T18:55:52;13.70;;;9.27;;
8312;SDS011;4194;43.408;24.626;2023-12-07T18:58:18;12.53;;;9.03;;
8312;SDS011;4194;43.408;24.626;2023-12-07T19:00:47;12.60;;;9.03;;
8312;SDS011;4194;43.408;24.626;2023-12-07T19:03:13;11.73;;;8.47;;
8312;SDS011;4194;43.408;24.626;2023-12-07T19:05:38;15.10;;;8.00;;
8312;SDS011;4194;43.408;24.626;2023-12-07T19:08:04;14.00;;;9.00;;
8312;SDS011;4194;43.408;24.626;2023-12-07T19:10:34;12.03;;;8.03;;
8312;SDS011;4194;43.408;24.626;2023-12-07T19:13:00;14.10;;;8.73;;
8312;SDS011;4194;43.408;24.626;2023-12-07T19:15:26;16.20;;;10.77;;
8312;SDS011;4194;43.408;24.626;2023-12-07T19:17:51;18.53;;;10.87;;
8312;SDS011;4194;43.408;24.626;2023-12-07T19:20:17;18.20;;;14.17;;
8312;SDS011;4194;43.408;24.626;2023-12-07T19:22:43;21.57;;;13.60;;
8312;SDS011;4194;43.408;24.626;2023-12-07T19:25:08;18.97;;;11.37;;
8312;SDS011;4194;43.408;24.626;2023-12-07T19:27:34;11.87;;;9.13;;
8312;SDS011;4194;43.408;24.626;2023-12-07T19:30:00;12.57;;;8.37;;
8312;SDS011;4194;43.408;24.626;2023-12-07T19:32:25;11.27;;;8.47;;
8312;SDS011;4194;43.408;24.626;2023-12-07T19:34:52;9.93;;;7.40;;
8312;SDS011;4194;43.408;24.626;2023-12-07T19:37:18;8.40;;;6.73;;
8312;SDS011;4194;43.408;24.626;2023-12-07T19:39:44;9.97;;;6.40;;
8312;SDS011;4194;43.408;24.626;2023-12-07T19:42:09;6.93;;;5.90;;
8312;SDS011;4194;43.408;24.626;2023-12-07T19:44:35;7.93;;;6.70;;
8312;SDS011;4194;43.408;24.626;2023-12-07T19:47:01;17.00;;;12.80;;
8312;SDS011;4194;43.408;24.626;2023-12-07T19:49:28;16.80;;;15.00;;
8312;SDS011;4194;43.408;24.626;2023-12-07T19:51:53;8.40;;;7.43;;
8312;SDS011;4194;43.408;24.626;2023-12-07T19:54:19;11.00;;;9.33;;
8312;SDS011;4194;43.408;24.626;2023-12-07T19:56:49;8.47;;;7.30;;
8312;SDS011;4194;43.408;24.626;2023-12-07T19:59:15;5.47;;;4.97;;
8312;SDS011;4194;43.408;24.626;2023-12-07T20:01:40;5.77;;;4.90;;
8312;SDS011;4194;43.408;24.626;2023-12-07T20:04:06;5.57;;;4.97;;
8312;SDS011;4194;43.408;24.626;2023-12-07T20:06:32;5.57;;;4.93;;
8312;SDS011;4194;43.408;24.626;2023-12-07T20:08:58;6.53;;;5.30;;
8312;SDS011;4194;43.408;24.626;2023-12-07T20:11:23;8.80;;;6.33;;
8312;SDS011;4194;43.408;24.626;2023-12-07T20:13:49;11.13;;;6.90;;
8312;SDS011;4194;43.408;24.626;2023-12-07T20:16:18;10.03;;;6.47;;
8312;SDS011;4194;43.408;24.626;2023-12-07T20:18:45;7.03;;;5.17;;
8312;SDS011;4194;43.408;24.626;2023-12-07T20:21:11;9.33;;;5.77;;
8312;SDS011;4194;43.408;24.626;2023-12-07T20:23:37;6.37;;;5.17;;
8312;SDS011;4194;43.408;24.626;2023-12-07T20:26:07;6.37;;;4.90;;
8312;SDS011;4194;43.408;24.626;2023-12-07T20:28:33;5.90;;;5.10;;
8312;SDS011;4194;43.408;24.626;2023-12-07T20:30:59;6.80;;;5.63;;
8312;SDS011;4194;43.408;24.626;2023-12-07T20:33:25;9.13;;;7.13;;
8312;SDS011;4194;43.408;24.626;2023-12-07T20:35:51;9.13;;;6.97;;
8312;SDS011;4194;43.408;24.626;2023-12-07T20:38:17;10.60;;;7.80;;
8312;SDS011;4194;43.408;24.626;2023-12-07T20:40:42;11.23;;;8.70;;
8312;SDS011;4194;43.408;24.626;2023-12-07T20:43:08;10.53;;;8.73;;
8312;SDS011;4194;43.408;24.626;2023-12-07T20:45:34;11.97;;;8.63;;
8312;SDS011;4194;43.408;24.626;2023-12-07T20:48:00;10.93;;;8.57;;
8312;SDS011;4194;43.408;24.626;2023-12-07T20:50:26;9.17;;;7.97;;
8312;SDS011;4194;43.408;24.626;2023-12-07T20:52:52;9.20;;;7.20;;
8312;SDS011;4194;43.408;24.626;2023-12-07T20:55:18;9.50;;;8.10;;
8312;SDS011;4194;43.408;24.626;2023-12-07T20:57:45;9.90;;;8.07;;
8312;SDS011;4194;43.408;24.626;2023-12-07T21:00:13;8.90;;;7.87;;
8312;SDS011;4194;43.408;24.626;2023-12-07T21:02:40;10.17;;;7.83;;
8312;SDS011;4194;43.408;24.626;2023-12-07T21:05:05;12.07;;;9.20;;
8312;SDS011;4194;43.408;24.626;2023-12-07T21:07:31;11.77;;;8.80;;
8312;SDS011;4194;43.408;24.626;2023-12-07T21:09:57;12.20;;;9.60;;
8312;SDS011;4194;43.408;24.626;2023-12-07T21:12:23;11.27;;;8.97;;
8312;SDS011;4194;43.408;24.626;2023-12-07T21:14:48;11.27;;;9.50;;
8312;SDS011;4194;43.408;24.626;2023-12-07T21:17:14;14.83;;;9.97;;
8312;SDS011;4194;43.408;24.626;2023-12-07T21:19:43;14.80;;;11.43;;
8312;SDS011;4194;43.408;24.626;2023-12-07T21:22:10;19.07;;;13.27;;
8312;SDS011;4194;43.408;24.626;2023-12-07T21:24:36;20.87;;;14.83;;
8312;SDS011;4194;43.408;24.626;2023-12-07T21:27:02;39.87;;;24.73;;
8312;SDS011;4194;43.408;24.626;2023-12-07T21:29:28;24.00;;;18.00;;
8312;SDS011;4194;43.408;24.626;2023-12-07T21:31:53;22.73;;;16.83;;
8312;SDS011;4194;43.408;24.626;2023-12-07T21:34:19;32.63;;;22.63;;
8312;SDS011;4194;43.408;24.626;2023-12-07T21:36:45;33.27;;;20.93;;
8312;SDS011;4194;43.408;24.626;2023-12-07T21:39:10;26.67;;;18.83;;
8312;SDS011;4194;43.408;24.626;2023-12-07T21:41:36;29.37;;;21.03;;
8312;SDS011;4194;43.408;24.626;2023-12-07T21:44:03;19.87;;;14.93;;
8312;SDS011;4194;43.408;24.626;2023-12-07T21:46:28;23.50;;;16.03;;
8312;SDS011;4194;43.408;24.626;2023-12-07T21:48:54;24.83;;;16.50;;
8312;SDS011;4194;43.408;24.626;2023-12-07T21:51:20;25.57;;;16.50;;
8312;SDS011;4194;43.408;24.626;2023-12-07T21:53:46;26.90;;;18.47;;
8312;SDS011;4194;43.408;24.626;2023-12-07T21:56:12;23.93;;;16.70;;
8312;SDS011;4194;43.408;24.626;2023-12-07T21:58:37;24.47;;;15.93;;
8312;SDS011;4194;43.408;24.626;2023-12-07T22:01:03;27.30;;;18.60;;
8312;SDS011;4194;43.408;24.626;2023-12-07T22:03:29;28.07;;;18.07;;
8312;SDS011;4194;43.408;24.626;2023-12-07T22:05:55;27.53;;;17.47;;
8312;SDS011;4194;43.408;24.626;2023-12-07T22:08:21;22.90;;;15.93;;
8312;SDS011;4194;43.408;24.626;2023-12-07T22:10:46;27.83;;;17.53;;
8312;SDS011;4194;43.408;24.626;2023-12-07T22:13:12;27.77;;;17.87;;
8312;SDS011;4194;43.408;24.626;2023-12-07T22:15:38;29.60;;;17.83;;
8312;SDS011;4194;43.408;24.626;2023-12-07T22:18:04;31.80;;;19.37;;
8312;SDS011;4194;43.408;24.626;2023-12-07T22:20:29;27.07;;;16.67;;
8312;SDS011;4194;43.408;24.626;2023-12-07T22:22:55;27.63;;;16.53;;
8312;SDS011;4194;43.408;24.626;2023-12-07T22:25:21;27.17;;;16.50;;
8312;SDS011;4194;43.408;24.626;2023-12-07T22:27:47;29.40;;;17.33;;
8312;SDS011;4194;43.408;24.626;2023-12-07T22:30:13;28.93;;;18.00;;
8312;SDS011;4194;43.408;24.626;2023-12-07T22:32:43;30.07;;;18.10;;
8312;SDS011;4194;43.408;24.626;2023-12-07T22:35:09;30.03;;;18.67;;
8312;SDS011;4194;43.408;24.626;2023-12-07T22:37:35;31.07;;;18.47;;
8312;SDS011;4194;43.408;24.626;2023-12-07T22:40:01;29.63;;;18.10;;
8312;SDS011;4194;43.408;24.626;2023-12-07T22:42:27;26.23;;;17.00;;
8312;SDS011;4194;43.408;24.626;2023-12-07T22:44:53;24.83;;;16.70;;
8312;SDS011;4194;43.408;24.626;2023-12-07T22:47:19;30.10;;;17.27;;
8312;SDS011;4194;43.408;24.626;2023-12-07T22:49:44;31.23;;;17.83;;
8312;SDS011;4194;43.408;24.626;2023-12-07T22:52:10;29.20;;;17.10;;
8312;SDS011;4194;43.408;24.626;2023-12-07T22:54:36;29.17;;;17.10;;
8312;SDS011;4194;43.408;24.626;2023-12-07T22:57:01;24.00;;;15.17;;
8312;SDS011;4194;43.408;24.626;2023-12-07T22:59:28;23.63;;;15.07;;
8312;SDS011;4194;43.408;24.626;2023-12-07T23:01:55;23.37;;;14.70;;
8312;SDS011;4194;43.408;24.626;2023-12-07T23:04:20;23.03;;;15.27;;
8312;SDS011;4194;43.408;24.626;2023-12-07T23:06:47;24.23;;;14.13;;
8312;SDS011;4194;43.408;24.626;2023-12-07T23:09:13;20.13;;;14.03;;
8312;SDS011;4194;43.408;24.626;2023-12-07T23:11:39;21.80;;;14.63;;
8312;SDS011;4194;43.408;24.626;2023-12-07T23:14:04;22.90;;;14.20;;
8312;SDS011;4194;43.408;24.626;2023-12-07T23:16:30;20.80;;;13.60;;
8312;SDS011;4194;43.408;24.626;2023-12-07T23:18:56;19.33;;;13.10;;
8312;SDS011;4194;43.408;24.626;2023-12-07T23:21:22;22.47;;;13.30;;
8312;SDS011;4194;43.408;24.626;2023-12-07T23:23:48;21.40;;;13.17;;
8312;SDS011;4194;43.408;24.626;2023-12-07T23:26:14;18.80;;;12.97;;
8312;SDS011;4194;43.408;24.626;2023-12-07T23:28:40;19.43;;;13.10;;
8312;SDS011;4194;43.408;24.626;2023-12-07T23:31:06;17.77;;;12.13;;
8312;SDS011;4194;43.408;24.626;2023-12-07T23:33:32;22.23;;;13.73;;
8312;SDS011;4194;43.408;24.626;2023-12-07T23:35:58;19.03;;;12.27;;
8312;SDS011;4194;43.408;24.626;2023-12-07T23:38:24;22.03;;;13.70;;
8312;SDS011;4194;43.408;24.626;2023-12-07T23:40:49;18.97;;;12.60;;
8312;SDS011;4194;43.408;24.626;2023-12-07T23:43:15;19.63;;;11.77;;
8312;SDS011;4194;43.408;24.626;2023-12-07T23:45:41;22.33;;;13.27;;
8312;SDS011;4194;43.408;24.626;2023-12-07T23:48:06;17.80;;;11.90;;
8312;SDS011;4194;43.408;24.626;2023-12-07T23:50:32;16.27;;;11.97;;
8312;SDS011;4194;43.408;24.626;2023-12-07T23:52:58;16.73;;;11.67;;
8312;SDS011;4194;43.408;24.626;2023-12-07T23:55:24;15.37;;;10.57;;
8312;SDS011;4194;43.408;24.626;2023-12-07T23:57:51;15.93;;;11.07;;
